Time;durP1;ratioP1;P1;durP2;ratioP2;P2;SDS_P1;SDS_P2;PMS_P1;PMS_P2;Temp;Humidity;BMP_temperature;BMP_pressure;BME280_temperature;BME280_humidity;BME280_pressure;Samples;Min_cycle;Max_cycle;Signal;HPM_P1;HPM_P2
2023/12/29 00:01:37;;;;;;;69.27;48.90;;;9.80;99.10;;;;;;5060284;28;20233;-79
2023/12/29 00:04:04;;;;;;;69.90;46.00;;;9.80;99.10;;;;;;5057022;28;20208;-79
2023/12/29 00:06:32;;;;;;;69.53;46.63;;;9.80;99.10;;;;;;5065363;28;20259;-79
2023/12/29 00:13:22;;;;;;;65.77;44.37;;;9.80;99.10;;;;;;5073296;28;20344;-80
2023/12/29 00:15:54;;;;;;;69.87;45.17;;;9.80;99.10;;;;;;5058844;28;20200;-79
2023/12/29 00:18:21;;;;;;;67.60;47.03;;;9.80;99.10;;;;;;5051342;28;20251;-80
2023/12/29 00:20:49;;;;;;;67.57;47.03;;;9.80;99.10;;;;;;5066510;28;20228;-79
2023/12/29 00:23:33;;;;;;;66.50;46.10;;;9.90;99.10;;;;;;5057267;28;20292;-79
2023/12/29 00:26:01;;;;;;;64.73;45.90;;;9.80;99.10;;;;;;5053773;28;20647;-79
2023/12/29 00:28:29;;;;;;;61.17;44.63;;;9.90;99.10;;;;;;5051710;28;20216;-80
2023/12/29 00:30:56;;;;;;;63.17;43.73;;;9.90;99.00;;;;;;5057770;28;20196;-79
2023/12/29 00:33:31;;;;;;;59.37;44.70;;;9.90;99.00;;;;;;5066176;28;20198;-79
2023/12/29 00:35:59;;;;;;;61.77;43.63;;;9.90;98.90;;;;;;5047816;28;20219;-79
2023/12/29 00:38:28;;;;;;;61.37;44.93;;;9.90;99.00;;;;;;5065160;28;20257;-78
2023/12/29 00:40:55;;;;;;;63.47;46.07;;;9.90;99.00;;;;;;5071705;28;20222;-79
2023/12/29 00:43:22;;;;;;;65.83;43.93;;;9.90;99.00;;;;;;5058145;28;20195;-79
2023/12/29 00:45:51;;;;;;;58.20;42.00;;;9.80;99.00;;;;;;5086139;28;20213;-78
2023/12/29 00:48:18;;;;;;;61.20;41.37;;;9.90;99.00;;;;;;5071215;28;20734;-78
2023/12/29 00:50:45;;;;;;;58.97;40.87;;;9.90;98.90;;;;;;5068116;28;20211;-78
2023/12/29 00:53:13;;;;;;;58.27;40.87;;;9.90;98.90;;;;;;5066908;28;20204;-78
2023/12/29 00:55:40;;;;;;;60.80;40.77;;;9.90;98.90;;;;;;5078712;28;20219;-79
2023/12/29 00:58:07;;;;;;;54.23;39.63;;;9.90;98.80;;;;;;5074680;28;20311;-80
2023/12/29 01:00:34;;;;;;;57.03;39.20;;;9.90;98.80;;;;;;5073671;28;20200;-80
2023/12/29 01:03:02;;;;;;;58.23;41.17;;;9.90;98.70;;;;;;5059857;28;20213;-79
2023/12/29 01:05:29;;;;;;;55.87;39.33;;;9.90;98.50;;;;;;5063281;28;20243;-78
2023/12/29 01:07:57;;;;;;;56.23;39.70;;;9.90;98.50;;;;;;5052465;28;20217;-79
2023/12/29 01:10:24;;;;;;;61.37;41.23;;;9.90;98.50;;;;;;5072817;28;20528;-78
2023/12/29 01:12:51;;;;;;;52.93;38.43;;;9.80;98.50;;;;;;5064739;28;20296;-79
2023/12/29 01:15:19;;;;;;;56.57;40.03;;;9.80;98.50;;;;;;5085796;28;20522;-79
2023/12/29 01:17:46;;;;;;;54.83;39.50;;;9.80;98.50;;;;;;5064282;28;20257;-80
2023/12/29 01:20:14;;;;;;;55.13;40.10;;;9.80;98.50;;;;;;5077016;28;20264;-79
2023/12/29 01:22:42;;;;;;;56.50;40.30;;;9.80;98.50;;;;;;5096359;28;20211;-78
2023/12/29 01:25:09;;;;;;;57.20;39.73;;;9.80;98.50;;;;;;5082823;28;20211;-79
2023/12/29 01:27:37;;;;;;;58.63;40.30;;;9.80;98.50;;;;;;5079791;28;20435;-79
2023/12/29 01:30:06;;;;;;;56.00;38.93;;;9.80;98.50;;;;;;5070603;28;20223;-79
2023/12/29 01:32:33;;;;;;;57.20;37.90;;;9.80;98.50;;;;;;5067038;28;20197;-78
2023/12/29 01:35:00;;;;;;;55.40;38.33;;;9.80;98.50;;;;;;5075120;28;20233;-79
2023/12/29 01:37:27;;;;;;;55.40;39.43;;;9.70;98.50;;;;;;5077355;28;20204;-78
2023/12/29 01:39:54;;;;;;;55.17;37.73;;;9.70;98.40;;;;;;5082631;28;20195;-79
2023/12/29 01:42:22;;;;;;;50.73;37.30;;;9.70;98.40;;;;;;5064536;28;20255;-79
2023/12/29 01:44:53;;;;;;;55.23;39.47;;;9.70;98.40;;;;;;5078102;28;20204;-79
2023/12/29 01:47:22;;;;;;;58.43;38.57;;;9.70;98.40;;;;;;5076808;28;20194;-79
2023/12/29 01:49:50;;;;;;;57.67;37.93;;;9.70;98.40;;;;;;5070775;28;20217;-79
2023/12/29 01:52:22;;;;;;;56.20;37.53;;;9.70;98.40;;;;;;5067679;28;20306;-79
2023/12/29 01:54:54;;;;;;;59.97;38.37;;;9.70;98.40;;;;;;5077691;28;20196;-79
2023/12/29 01:57:35;;;;;;;54.13;38.90;;;9.60;98.40;;;;;;5078795;28;20235;-79
2023/12/29 02:00:07;;;;;;;51.40;37.33;;;9.70;98.40;;;;;;5090545;28;20555;-79
2023/12/29 02:02:39;;;;;;;54.17;37.60;;;9.60;98.40;;;;;;5077915;28;20203;-78
2023/12/29 02:05:14;;;;;;;46.77;36.90;;;9.60;98.40;;;;;;5066729;28;20201;-78
2023/12/29 02:07:42;;;;;;;57.80;38.40;;;9.60;98.30;;;;;;5085465;28;20213;-78
2023/12/29 02:10:13;;;;;;;61.17;39.00;;;9.60;98.30;;;;;;5065162;28;20205;-79
2023/12/29 02:12:41;;;;;;;53.37;36.70;;;9.50;98.40;;;;;;5080265;28;20208;-79
2023/12/29 02:15:09;;;;;;;54.07;39.00;;;9.50;98.40;;;;;;5076779;28;20255;-80
2023/12/29 02:17:43;;;;;;;57.53;41.10;;;9.50;98.40;;;;;;5077236;28;20227;-79
2023/12/29 02:20:12;;;;;;;57.63;40.17;;;9.50;98.50;;;;;;5074486;28;20211;-79
2023/12/29 02:22:39;;;;;;;55.73;38.17;;;9.60;98.50;;;;;;5075919;28;20212;-79
2023/12/29 02:25:06;;;;;;;51.80;36.47;;;9.60;98.50;;;;;;5076161;28;20240;-79
2023/12/29 02:27:52;;;;;;;55.53;39.47;;;9.60;98.50;;;;;;5053590;28;20269;-79
2023/12/29 02:30:37;;;;;;;52.97;37.90;;;9.60;98.60;;;;;;5064016;28;20207;-79
2023/12/29 02:33:09;;;;;;;52.80;39.03;;;9.60;98.50;;;;;;5088896;28;20204;-81
2023/12/29 02:35:43;;;;;;;50.33;36.33;;;9.60;98.50;;;;;;5078027;28;20208;-79
2023/12/29 02:38:13;;;;;;;53.50;38.63;;;9.60;98.50;;;;;;5075031;28;20200;-78
2023/12/29 02:40:40;;;;;;;55.07;39.07;;;9.60;98.50;;;;;;5069382;28;20197;-81
2023/12/29 02:43:11;;;;;;;49.87;37.70;;;9.60;98.50;;;;;;5069440;28;20210;-79
2023/12/29 02:45:38;;;;;;;61.33;39.63;;;9.60;98.40;;;;;;5061851;28;20218;-79
2023/12/29 02:48:06;;;;;;;51.53;38.67;;;9.60;98.40;;;;;;5078472;28;20279;-79
2023/12/29 02:50:33;;;;;;;51.57;38.40;;;9.60;98.50;;;;;;5067724;28;20646;-80
2023/12/29 02:53:01;;;;;;;58.20;39.23;;;9.60;98.50;;;;;;5075314;28;20208;-79
2023/12/29 02:55:28;;;;;;;56.53;39.83;;;9.60;98.50;;;;;;5075256;28;20224;-79
2023/12/29 02:57:55;;;;;;;57.13;39.53;;;9.60;98.50;;;;;;5060327;28;20218;-78
2023/12/29 03:00:22;;;;;;;51.03;35.80;;;9.60;98.50;;;;;;5054742;28;20204;-79
2023/12/29 03:02:49;;;;;;;49.63;36.03;;;9.60;98.50;;;;;;5077755;28;20260;-78
2023/12/29 03:05:16;;;;;;;52.57;37.97;;;9.70;98.50;;;;;;5063563;28;20209;-80
2023/12/29 03:07:44;;;;;;;53.17;38.13;;;9.70;98.40;;;;;;5085165;28;20188;-79
2023/12/29 03:10:11;;;;;;;49.30;37.53;;;9.70;98.40;;;;;;5075474;28;20693;-81
2023/12/29 03:12:39;;;;;;;48.07;38.17;;;9.70;98.40;;;;;;5078392;28;20289;-79
2023/12/29 03:15:06;;;;;;;51.23;39.83;;;9.70;98.40;;;;;;5086739;28;20284;-78
2023/12/29 03:17:33;;;;;;;56.03;38.03;;;9.70;98.40;;;;;;5077265;28;20283;-79
2023/12/29 03:20:02;;;;;;;54.97;37.77;;;9.70;98.40;;;;;;5072600;28;20245;-79
2023/12/29 03:22:30;;;;;;;53.20;39.00;;;9.70;98.50;;;;;;5060997;28;20199;-78
2023/12/29 03:24:57;;;;;;;54.20;38.47;;;9.70;98.40;;;;;;5086993;28;20243;-80
2023/12/29 03:27:24;;;;;;;52.00;40.13;;;9.70;98.40;;;;;;5079380;28;20721;-78
2023/12/29 03:29:51;;;;;;;54.40;40.00;;;9.70;98.40;;;;;;5073279;28;20231;-79
2023/12/29 03:32:20;;;;;;;54.43;41.17;;;9.70;98.40;;;;;;5062411;28;20276;-79
2023/12/29 03:34:48;;;;;;;59.40;40.07;;;9.70;98.40;;;;;;5079344;28;20290;-78
2023/12/29 03:37:15;;;;;;;62.30;44.07;;;9.70;98.40;;;;;;5073689;28;20231;-78
2023/12/29 03:39:42;;;;;;;57.23;40.87;;;9.70;98.50;;;;;;5060241;28;20648;-79
2023/12/29 03:42:11;;;;;;;62.07;41.03;;;9.70;98.50;;;;;;5082990;28;20198;-79
2023/12/29 03:44:38;;;;;;;57.40;42.07;;;9.70;98.50;;;;;;5051527;28;20198;-79
2023/12/29 03:47:05;;;;;;;60.70;42.43;;;9.70;98.50;;;;;;5071976;28;20287;-79
2023/12/29 03:49:34;;;;;;;57.00;41.27;;;9.70;98.50;;;;;;5053960;28;20315;-78
2023/12/29 03:52:01;;;;;;;55.00;40.93;;;9.70;98.50;;;;;;5068956;28;20285;-78
2023/12/29 03:54:28;;;;;;;56.60;38.30;;;9.70;98.50;;;;;;5074667;28;20202;-79
2023/12/29 03:56:55;;;;;;;52.37;38.70;;;9.70;98.50;;;;;;5068298;28;20196;-79
2023/12/29 03:59:23;;;;;;;55.13;40.93;;;9.70;98.60;;;;;;5074069;28;20199;-79
2023/12/29 04:01:50;;;;;;;59.97;39.37;;;9.70;98.60;;;;;;5049895;28;20209;-79
2023/12/29 04:04:18;;;;;;;62.57;41.33;;;9.70;98.60;;;;;;5081284;28;20225;-78
2023/12/29 04:06:45;;;;;;;59.67;42.13;;;9.70;98.60;;;;;;5055216;28;20557;-79
2023/12/29 04:09:12;;;;;;;60.87;43.43;;;9.70;98.60;;;;;;5073558;28;20243;-78
2023/12/29 04:11:40;;;;;;;61.67;41.23;;;9.70;98.70;;;;;;5054576;28;20532;-78
2023/12/29 04:14:08;;;;;;;60.20;41.87;;;9.70;98.70;;;;;;5066102;28;20203;-78
2023/12/29 04:16:37;;;;;;;61.03;42.03;;;9.70;98.70;;;;;;5066668;28;20205;-78
2023/12/29 04:19:05;;;;;;;59.30;41.73;;;9.70;98.70;;;;;;5072141;28;20600;-79
2023/12/29 04:21:32;;;;;;;61.10;42.30;;;9.70;98.70;;;;;;5073551;28;20204;-79
2023/12/29 04:24:00;;;;;;;60.37;41.97;;;9.70;98.70;;;;;;5092423;28;20567;-79
2023/12/29 04:26:27;;;;;;;58.97;41.97;;;9.70;98.70;;;;;;5075835;28;20211;-79
2023/12/29 04:28:54;;;;;;;66.33;43.63;;;9.70;98.70;;;;;;5067190;28;20668;-78
2023/12/29 04:31:21;;;;;;;64.00;43.77;;;9.70;98.70;;;;;;5087107;28;20212;-79
2023/12/29 04:33:48;;;;;;;57.03;41.30;;;9.70;98.70;;;;;;5076932;28;20280;-79
2023/12/29 04:36:15;;;;;;;62.13;43.67;;;9.80;98.80;;;;;;5077225;28;20195;-79
2023/12/29 04:38:44;;;;;;;58.27;41.37;;;9.70;98.80;;;;;;5082168;28;20575;-79
2023/12/29 04:41:13;;;;;;;63.63;43.43;;;9.70;98.80;;;;;;5076942;28;20296;-78
2023/12/29 04:43:40;;;;;;;61.30;41.77;;;9.70;98.80;;;;;;5062886;28;20332;-79
2023/12/29 04:46:07;;;;;;;60.90;40.57;;;9.70;98.80;;;;;;5086578;28;20303;-80
2023/12/29 04:48:34;;;;;;;60.07;41.20;;;9.70;98.80;;;;;;5085845;28;20311;-79
2023/12/29 04:51:02;;;;;;;58.20;42.17;;;9.70;98.90;;;;;;5078000;28;20203;-79
2023/12/29 04:53:29;;;;;;;58.00;42.03;;;9.70;98.90;;;;;;5070906;28;20300;-78
2023/12/29 04:55:57;;;;;;;65.10;43.10;;;9.70;98.90;;;;;;5093425;28;20207;-79
2023/12/29 04:58:24;;;;;;;55.93;41.53;;;9.70;98.90;;;;;;5069389;28;20189;-80
2023/12/29 05:00:51;;;;;;;60.93;42.20;;;9.70;99.00;;;;;;5065022;28;20218;-79
2023/12/29 05:03:19;;;;;;;63.70;41.13;;;9.80;99.00;;;;;;5086970;28;20211;-79
2023/12/29 05:05:46;;;;;;;57.23;42.10;;;9.80;99.00;;;;;;5082290;28;20263;-79
2023/12/29 05:08:13;;;;;;;60.00;41.57;;;9.80;99.00;;;;;;5079985;28;20208;-79
2023/12/29 05:10:40;;;;;;;65.70;42.73;;;9.80;99.00;;;;;;5091425;28;20226;-79
2023/12/29 05:13:08;;;;;;;63.80;40.67;;;9.80;99.00;;;;;;5072974;28;20211;-81
2023/12/29 05:15:35;;;;;;;53.93;39.43;;;9.90;99.00;;;;;;5075305;28;20201;-78
2023/12/29 05:18:02;;;;;;;59.47;41.67;;;9.90;99.00;;;;;;5084674;28;20262;-79
2023/12/29 05:20:30;;;;;;;58.70;40.50;;;9.90;99.00;;;;;;5072338;28;20286;-79
2023/12/29 05:22:57;;;;;;;66.17;42.40;;;9.90;99.00;;;;;;5053893;28;20293;-81
2023/12/29 05:25:24;;;;;;;55.67;40.57;;;9.90;99.00;;;;;;5075763;28;20201;-80
2023/12/29 05:27:51;;;;;;;61.47;40.30;;;9.90;99.30;;;;;;5091897;28;20232;-79
2023/12/29 05:30:18;;;;;;;60.53;42.63;;;9.90;99.00;;;;;;5062174;28;20215;-79
2023/12/29 05:32:45;;;;;;;61.40;42.17;;;10.00;99.00;;;;;;5062509;28;20252;-78
2023/12/29 05:35:13;;;;;;;65.20;41.80;;;10.00;99.00;;;;;;5092153;28;20625;-79
2023/12/29 05:37:40;;;;;;;63.53;43.03;;;10.00;99.00;;;;;;5058175;28;20207;-79
2023/12/29 05:40:07;;;;;;;57.10;40.13;;;10.00;99.00;;;;;;5061534;28;20286;-80
2023/12/29 05:42:35;;;;;;;60.87;41.20;;;10.00;99.00;;;;;;5069800;28;20201;-78
2023/12/29 05:45:02;;;;;;;55.60;40.77;;;10.00;98.90;;;;;;5075622;28;20205;-80
2023/12/29 05:47:30;;;;;;;57.83;41.03;;;9.90;98.80;;;;;;5072949;28;20209;-79
2023/12/29 05:49:57;;;;;;;54.93;39.97;;;9.90;98.90;;;;;;5072226;28;20655;-78
2023/12/29 05:52:24;;;;;;;57.90;38.47;;;9.90;98.90;;;;;;5057444;28;20199;-81
2023/12/29 05:54:51;;;;;;;53.63;39.53;;;9.90;98.90;;;;;;5062439;28;20201;-79
2023/12/29 05:57:18;;;;;;;55.03;38.80;;;9.80;98.80;;;;;;5064976;28;20204;-81
2023/12/29 05:59:45;;;;;;;58.37;39.33;;;9.80;98.90;;;;;;5080380;28;20268;-79
2023/12/29 06:02:13;;;;;;;55.43;38.97;;;9.80;98.90;;;;;;5079368;28;20219;-79
2023/12/29 06:04:40;;;;;;;57.73;38.50;;;9.80;98.90;;;;;;5075398;28;20208;-79
2023/12/29 06:07:07;;;;;;;55.20;38.17;;;9.70;98.80;;;;;;5078186;28;20549;-79
2023/12/29 06:09:35;;;;;;;51.60;38.73;;;9.70;98.90;;;;;;5069158;28;20211;-79
2023/12/29 06:12:02;;;;;;;59.13;39.67;;;9.60;98.90;;;;;;5073455;28;20294;-77
2023/12/29 06:14:29;;;;;;;56.60;37.40;;;9.60;98.90;;;;;;5074947;28;20249;-79
2023/12/29 06:16:56;;;;;;;55.70;39.00;;;9.60;98.90;;;;;;5076883;28;20207;-79
2023/12/29 06:19:23;;;;;;;58.47;38.77;;;9.50;98.90;;;;;;5060307;28;20324;-80
2023/12/29 06:21:50;;;;;;;54.50;39.37;;;9.50;98.90;;;;;;5070572;28;20299;-79
2023/12/29 06:24:18;;;;;;;54.43;35.40;;;9.50;98.90;;;;;;5069062;28;20208;-79
2023/12/29 06:26:45;;;;;;;48.60;33.97;;;9.50;98.90;;;;;;5078986;28;20615;-79
2023/12/29 06:29:12;;;;;;;58.13;36.47;;;9.40;98.80;;;;;;5067206;28;20219;-80
2023/12/29 06:31:41;;;;;;;48.93;36.23;;;9.40;98.80;;;;;;5067560;28;20203;-79
2023/12/29 06:34:09;;;;;;;55.43;39.53;;;9.30;98.80;;;;;;5051745;28;20213;-78
2023/12/29 06:36:37;;;;;;;56.90;39.73;;;9.30;98.90;;;;;;5078492;28;20277;-80
2023/12/29 06:39:04;;;;;;;62.13;38.63;;;9.30;99.00;;;;;;5073491;28;20207;-79
2023/12/29 06:41:32;;;;;;;51.03;36.50;;;9.30;99.00;;;;;;5078907;28;20210;-78
2023/12/29 06:43:59;;;;;;;56.53;39.03;;;9.20;99.00;;;;;;5078641;28;20639;-79
2023/12/29 06:46:26;;;;;;;54.00;37.57;;;9.30;99.10;;;;;;5067051;28;20275;-80
2023/12/29 06:48:53;;;;;;;51.13;34.27;;;9.20;99.10;;;;;;5065743;28;20229;-79
2023/12/29 06:51:23;;;;;;;60.10;38.83;;;9.30;99.20;;;;;;5045665;28;20219;-80
2023/12/29 06:53:50;;;;;;;61.07;38.83;;;9.20;99.10;;;;;;5068638;28;20254;-78
2023/12/29 06:56:18;;;;;;;57.10;39.87;;;9.20;99.10;;;;;;5055276;28;20202;-79
2023/12/29 06:58:46;;;;;;;52.00;37.47;;;9.20;99.10;;;;;;5062878;28;20242;-79
2023/12/29 07:01:13;;;;;;;65.63;37.70;;;9.20;99.20;;;;;;5075771;28;20230;-79
2023/12/29 07:03:41;;;;;;;51.50;36.50;;;9.20;99.20;;;;;;5073541;28;20521;-80
2023/12/29 07:06:10;;;;;;;52.40;36.10;;;9.20;99.10;;;;;;5082630;28;20246;-79
2023/12/29 07:08:38;;;;;;;53.80;37.17;;;9.10;99.10;;;;;;5055416;28;20205;-79
2023/12/29 07:11:10;;;;;;;53.30;36.03;;;9.10;99.10;;;;;;5072291;28;20538;-79
2023/12/29 07:13:37;;;;;;;57.00;35.83;;;9.10;99.10;;;;;;5054962;28;20284;-79
2023/12/29 07:16:05;;;;;;;53.73;38.37;;;9.10;99.20;;;;;;5075933;28;20636;-78
2023/12/29 07:18:32;;;;;;;52.83;36.77;;;9.10;99.20;;;;;;5050854;28;20242;-80
2023/12/29 07:20:59;;;;;;;57.67;38.93;;;9.10;99.30;;;;;;5066025;28;20209;-79
2023/12/29 07:23:26;;;;;;;53.93;37.93;;;9.10;99.30;;;;;;5046898;28;20246;-79
2023/12/29 07:25:53;;;;;;;53.93;37.53;;;9.20;99.40;;;;;;5089406;28;20204;-79
2023/12/29 07:28:21;;;;;;;57.57;38.73;;;9.20;99.40;;;;;;5060926;28;20213;-80
2023/12/29 07:30:48;;;;;;;51.17;37.60;;;9.20;99.40;;;;;;5064945;28;20214;-79
2023/12/29 07:33:15;;;;;;;54.40;37.77;;;9.20;99.40;;;;;;5055728;28;20216;-78
2023/12/29 07:35:42;;;;;;;50.53;35.90;;;9.30;99.50;;;;;;5081782;28;20207;-80
2023/12/29 07:38:09;;;;;;;49.57;35.07;;;9.30;99.50;;;;;;5079337;28;20206;-79
2023/12/29 07:40:37;;;;;;;48.90;34.70;;;9.30;99.50;;;;;;5068154;28;20272;-80
2023/12/29 07:43:05;;;;;;;49.73;34.20;;;9.40;99.50;;;;;;5064901;28;20203;-79
2023/12/29 07:45:33;;;;;;;47.03;32.47;;;9.40;99.50;;;;;;5077350;28;20645;-80
2023/12/29 07:48:02;;;;;;;48.47;34.90;;;9.50;99.50;;;;;;5074189;28;20200;-81
2023/12/29 07:50:31;;;;;;;50.70;33.30;;;9.50;99.50;;;;;;5068827;28;20281;-80
2023/12/29 07:53:02;;;;;;;47.47;32.20;;;9.60;99.50;;;;;;5074353;28;20203;-78
2023/12/29 07:55:30;;;;;;;43.63;31.03;;;9.60;99.40;;;;;;5079578;28;20208;-78
2023/12/29 07:57:58;;;;;;;48.67;33.30;;;9.70;99.40;;;;;;5084267;28;20210;-79
2023/12/29 08:00:26;;;;;;;48.83;33.63;;;9.70;99.30;;;;;;5070957;28;20234;-79
2023/12/29 08:02:53;;;;;;;54.53;36.30;;;9.80;99.30;;;;;;5066930;28;20211;-80
2023/12/29 08:05:20;;;;;;;48.10;34.60;;;9.80;99.20;;;;;;5061536;28;20201;-79
2023/12/29 08:07:48;;;;;;;50.10;33.63;;;9.90;99.10;;;;;;5083732;28;20254;-78
2023/12/29 08:10:15;;;;;;;42.67;32.10;;;9.90;99.10;;;;;;5072516;28;20213;-79
2023/12/29 08:12:42;;;;;;;49.37;32.73;;;9.90;99.00;;;;;;5068512;28;20269;-78
2023/12/29 08:15:09;;;;;;;45.03;30.93;;;10.00;99.00;;;;;;5067481;28;20195;-79
2023/12/29 08:17:38;;;;;;;44.43;29.77;;;10.00;98.90;;;;;;5038780;28;20211;-79
2023/12/29 08:20:06;;;;;;;45.47;30.73;;;10.10;98.80;;;;;;5069636;28;20245;-80
2023/12/29 08:22:33;;;;;;;41.33;28.03;;;10.10;98.80;;;;;;5075876;28;20219;-79
2023/12/29 08:25:00;;;;;;;39.47;27.87;;;10.10;98.70;;;;;;5072950;28;20639;-78
2023/12/29 08:27:28;;;;;;;40.73;28.40;;;10.20;98.60;;;;;;5062948;28;20286;-79
2023/12/29 08:29:55;;;;;;;41.63;28.30;;;10.20;98.60;;;;;;5042095;28;20240;-78
2023/12/29 08:32:22;;;;;;;39.03;26.13;;;10.20;98.50;;;;;;5057161;28;20233;-79
2023/12/29 08:34:49;;;;;;;41.70;25.80;;;10.30;98.40;;;;;;5068104;28;20213;-79
2023/12/29 08:37:19;;;;;;;38.07;27.07;;;10.30;98.30;;;;;;5054288;28;20199;-79
2023/12/29 08:39:47;;;;;;;39.10;27.53;;;10.30;98.30;;;;;;5055392;28;20224;-79
2023/12/29 08:42:15;;;;;;;37.87;27.17;;;10.40;98.30;;;;;;5055422;28;20208;-79
2023/12/29 08:44:43;;;;;;;39.53;26.40;;;10.50;98.30;;;;;;5065903;28;20306;-78
2023/12/29 08:47:35;;;;;;;43.67;26.50;;;10.60;98.30;;;;;;5075044;28;20216;-79
2023/12/29 08:50:02;;;;;;;35.50;25.73;;;10.80;98.30;;;;;;5071705;28;20245;-80
2023/12/29 08:52:29;;;;;;;34.53;25.57;;;11.00;98.10;;;;;;5075896;28;20262;-79
2023/12/29 08:54:56;;;;;;;39.93;27.03;;;11.20;98.00;;;;;;5082716;28;20226;-79
2023/12/29 08:57:24;;;;;;;46.03;29.57;;;11.40;97.80;;;;;;5071273;28;20641;-78
2023/12/29 08:59:51;;;;;;;41.63;29.10;;;11.50;97.40;;;;;;5079373;28;20217;-80
2023/12/29 09:02:18;;;;;;;41.43;30.03;;;11.60;97.10;;;;;;5082133;28;20280;-79
2023/12/29 09:04:45;;;;;;;42.33;30.20;;;11.70;96.90;;;;;;5073912;28;20244;-80
2023/12/29 09:07:12;;;;;;;40.43;30.40;;;11.70;96.80;;;;;;5073323;28;20230;-79
2023/12/29 09:09:40;;;;;;;42.63;30.50;;;11.70;96.80;;;;;;5063993;28;20209;-78
2023/12/29 09:12:07;;;;;;;44.60;31.53;;;11.80;96.80;;;;;;5068666;28;20666;-81
2023/12/29 09:14:34;;;;;;;47.27;33.00;;;11.90;96.80;;;;;;5080126;28;20206;-80
2023/12/29 09:17:03;;;;;;;44.57;31.50;;;11.90;96.70;;;;;;5072458;28;20209;-81
2023/12/29 09:19:32;;;;;;;49.30;33.17;;;11.90;96.70;;;;;;5062822;28;20288;-80
2023/12/29 09:22:06;;;;;;;43.20;32.50;;;12.00;96.70;;;;;;5080810;28;20211;-80
2023/12/29 09:24:33;;;;;;;44.90;32.07;;;12.00;96.70;;;;;;5056862;28;20204;-81
2023/12/29 09:27:00;;;;;;;41.07;30.63;;;12.10;96.70;;;;;;5077236;28;20197;-80
2023/12/29 09:29:27;;;;;;;46.93;34.47;;;12.30;96.60;;;;;;5076273;28;20201;-80
2023/12/29 09:31:55;;;;;;;46.80;32.30;;;12.40;96.40;;;;;;5083308;28;20231;-78
2023/12/29 09:34:22;;;;;;;42.83;31.37;;;12.50;96.20;;;;;;5088468;28;20208;-79
2023/12/29 09:36:49;;;;;;;39.53;31.17;;;12.60;96.00;;;;;;5073857;28;20285;-79
2023/12/29 09:39:16;;;;;;;43.80;32.20;;;12.70;95.90;;;;;;5063139;28;20654;-79
2023/12/29 09:41:46;;;;;;;45.90;31.40;;;12.80;95.70;;;;;;5081158;28;20206;-80
2023/12/29 09:44:15;;;;;;;40.73;30.43;;;12.90;95.60;;;;;;5077151;28;20209;-79
2023/12/29 09:46:44;;;;;;;49.03;31.83;;;12.90;95.40;;;;;;5066766;28;20287;-80
2023/12/29 09:49:13;;;;;;;50.47;34.93;;;13.00;95.20;;;;;;5071941;28;20222;-80
2023/12/29 09:51:41;;;;;;;47.50;32.40;;;13.00;95.20;;;;;;5075764;28;20213;-80
2023/12/29 09:54:10;;;;;;;43.73;33.77;;;13.10;95.10;;;;;;5077013;28;20828;-79
2023/12/29 09:56:40;;;;;;;46.03;32.47;;;13.20;95.00;;;;;;5074948;28;20216;-80
2023/12/29 09:59:12;;;;;;;45.53;32.27;;;13.20;94.90;;;;;;5071901;28;20196;-80
2023/12/29 10:01:42;;;;;;;42.37;31.13;;;13.30;94.80;;;;;;5065720;28;20214;-80
2023/12/29 10:04:09;;;;;;;46.63;32.60;;;13.30;94.60;;;;;;5067125;28;20552;-79
2023/12/29 10:06:41;;;;;;;46.53;33.03;;;13.40;94.60;;;;;;5075625;28;20302;-80
2023/12/29 10:09:12;;;;;;;46.67;33.07;;;13.50;94.50;;;;;;5094361;28;20201;-80
2023/12/29 10:11:42;;;;;;;42.10;29.93;;;13.50;94.30;;;;;;5061486;28;20214;-79
2023/12/29 10:14:54;;;;;;;38.13;29.40;;;13.60;94.30;;;;;;5056290;28;20222;-80
2023/12/29 10:17:39;;;;;;;37.10;27.83;;;13.70;93.80;;;;;;5066524;28;20198;-80
2023/12/29 10:20:22;;;;;;;38.57;28.70;;;13.80;93.70;;;;;;5086290;28;20248;-80
2023/12/29 10:23:08;;;;;;;32.83;26.43;;;13.80;93.70;;;;;;5067942;28;20240;-79
2023/12/29 10:25:36;;;;;;;40.13;27.83;;;14.00;93.40;;;;;;5060933;28;20330;-79
2023/12/29 10:28:04;;;;;;;39.23;26.43;;;14.10;93.30;;;;;;5089792;28;20286;-80
2023/12/29 10:30:31;;;;;;;34.07;26.33;;;14.20;93.10;;;;;;5067405;28;20278;-80
2023/12/29 10:33:03;;;;;;;36.20;25.07;;;14.40;92.90;;;;;;5084637;28;20200;-80
2023/12/29 10:35:34;;;;;;;44.70;27.27;;;14.50;92.70;;;;;;5090461;28;20208;-80
2023/12/29 10:38:12;;;;;;;36.57;24.13;;;14.60;92.50;;;;;;5089528;28;20216;-80
2023/12/29 10:40:41;;;;;;;30.23;22.93;;;14.70;92.10;;;;;;5065383;28;20277;-79
2023/12/29 10:43:09;;;;;;;33.37;22.37;;;14.70;91.80;;;;;;5093452;28;20617;-81
2023/12/29 10:45:36;;;;;;;31.13;23.67;;;14.70;91.60;;;;;;5074923;28;20599;-80
2023/12/29 10:48:05;;;;;;;28.27;23.07;;;14.80;91.50;;;;;;5083108;28;20266;-79
2023/12/29 10:50:43;;;;;;;26.63;20.30;;;14.80;91.30;;;;;;5068515;28;20230;-79
2023/12/29 10:53:12;;;;;;;30.37;23.57;;;14.80;91.00;;;;;;5070694;28;20264;-80
2023/12/29 10:55:40;;;;;;;28.00;20.50;;;14.70;90.80;;;;;;5070852;28;20199;-80
2023/12/29 10:58:07;;;;;;;23.90;17.07;;;14.70;90.40;;;;;;5057029;28;20203;-80
2023/12/29 11:00:35;;;;;;;27.60;18.40;;;14.60;89.40;;;;;;5073807;28;20240;-80
2023/12/29 11:03:03;;;;;;;25.93;18.53;;;14.50;89.60;;;;;;5063656;28;20213;-79
2023/12/29 11:05:31;;;;;;;26.40;20.00;;;14.50;90.00;;;;;;5080372;28;20202;-80
2023/12/29 11:07:59;;;;;;;27.57;18.87;;;14.50;90.00;;;;;;5076698;28;20633;-80
2023/12/29 11:10:26;;;;;;;26.60;20.53;;;14.50;89.30;;;;;;5065840;28;20769;-79
2023/12/29 11:12:54;;;;;;;30.70;20.17;;;14.50;88.60;;;;;;5071347;28;20195;-79
2023/12/29 11:15:25;;;;;;;30.60;21.57;;;14.50;88.60;;;;;;5065375;28;20198;-80
2023/12/29 11:17:55;;;;;;;29.63;22.57;;;14.40;88.70;;;;;;5069595;28;20549;-80
2023/12/29 11:20:26;;;;;;;32.10;22.37;;;14.40;88.60;;;;;;5060667;28;20230;-79
2023/12/29 11:22:54;;;;;;;33.37;23.50;;;14.40;89.00;;;;;;5062442;28;20271;-80
2023/12/29 11:25:21;;;;;;;30.67;23.23;;;14.40;88.80;;;;;;5075720;28;20204;-80
2023/12/29 11:27:49;;;;;;;30.13;22.30;;;14.50;89.10;;;;;;5066955;28;20197;-79
2023/12/29 11:30:16;;;;;;;29.37;24.13;;;14.50;89.60;;;;;;5072122;28;20216;-79
2023/12/29 11:32:54;;;;;;;28.43;22.10;;;14.60;89.70;;;;;;5056134;28;20549;-79
2023/12/29 11:35:33;;;;;;;29.23;21.27;;;14.70;89.40;;;;;;5074528;28;20227;-80
2023/12/29 11:38:10;;;;;;;29.17;21.97;;;14.70;89.30;;;;;;5066769;28;20201;-80
2023/12/29 11:40:44;;;;;;;30.73;23.10;;;14.80;88.90;;;;;;5064569;28;20673;-79
2023/12/29 11:43:17;;;;;;;35.87;22.30;;;14.80;88.90;;;;;;5076556;28;20207;-79
2023/12/29 11:45:45;;;;;;;28.63;23.27;;;14.90;89.40;;;;;;5075168;28;20287;-80
2023/12/29 11:48:13;;;;;;;30.47;24.30;;;15.00;88.80;;;;;;5074283;28;20600;-80
2023/12/29 11:50:40;;;;;;;34.23;24.97;;;15.00;88.60;;;;;;5070826;28;20557;-80
2023/12/29 11:53:08;;;;;;;32.47;25.03;;;15.00;88.40;;;;;;5082656;28;20209;-80
2023/12/29 11:55:39;;;;;;;33.57;24.93;;;15.10;88.30;;;;;;5071841;28;20198;-80
2023/12/29 11:58:28;;;;;;;32.47;24.73;;;15.10;88.40;;;;;;5063852;28;20205;-80
2023/12/29 12:00:57;;;;;;;32.50;23.60;;;15.20;88.50;;;;;;5060661;28;20206;-80
2023/12/29 12:06:08;;;;;;;28.93;22.57;;;15.20;87.90;;;;;;5015865;28;20238;-62
2023/12/29 12:08:37;;;;;;;30.67;23.30;;;15.20;88.00;;;;;;5017209;28;20672;-62
2023/12/29 12:11:29;;;;;;;28.83;24.10;;;15.30;88.10;;;;;;5014561;28;20224;-61
2023/12/29 12:13:56;;;;;;;27.30;21.33;;;15.30;88.10;;;;;;5014986;28;20208;-62
2023/12/29 12:16:42;;;;;;;28.33;21.37;;;15.40;88.10;;;;;;5016347;28;20204;-62
2023/12/29 12:19:09;;;;;;;29.63;20.07;;;15.50;87.60;;;;;;5014342;28;20227;-62
2023/12/29 12:21:40;;;;;;;25.13;19.10;;;15.50;86.90;;;;;;5011434;28;20282;-61
2023/12/29 12:24:09;;;;;;;25.17;19.90;;;15.60;87.00;;;;;;5018199;28;20589;-61
2023/12/29 12:26:36;;;;;;;26.93;19.23;;;15.60;86.90;;;;;;5016267;28;20241;-61
2023/12/29 12:29:04;;;;;;;27.70;21.37;;;15.70;86.30;;;;;;5016107;28;20290;-63
2023/12/29 12:31:31;;;;;;;25.60;20.23;;;15.70;85.30;;;;;;5015002;28;20925;-61
2023/12/29 12:34:02;;;;;;;27.17;20.67;;;15.70;84.80;;;;;;5019803;28;20261;-61
2023/12/29 12:36:30;;;;;;;24.83;19.93;;;15.70;84.40;;;;;;5017167;28;20214;-62
2023/12/29 12:38:57;;;;;;;27.03;19.10;;;15.70;84.60;;;;;;5013358;28;20247;-61
2023/12/29 12:41:28;;;;;;;26.13;19.37;;;15.70;84.70;;;;;;5013805;28;20267;-62
2023/12/29 12:44:04;;;;;;;25.33;19.23;;;15.60;84.40;;;;;;5012501;28;20223;-67
2023/12/29 12:46:37;;;;;;;35.33;20.87;;;15.50;84.40;;;;;;5020666;28;20203;-62
2023/12/29 12:49:09;;;;;;;23.07;18.50;;;15.50;84.90;;;;;;5015788;28;20626;-62